Time;durP1;ratioP1;P1;durP2;ratioP2;P2;SDS_P1;SDS_P2;PMS_P1;PMS_P2;Temp;Humidity;BMP_temperature;BMP_pressure;BME280_temperature;BME280_humidity;BME280_pressure;Samples;Min_cycle;Max_cycle;Signal;HPM_P1;HPM_P2
2022/07/17 00:04:35;;;;;;;38.72;23.40;;;11.00;99.90;;;;;;10088168;29;20115;-84
2022/07/17 00:09:35;;;;;;;30.63;21.00;;;11.00;99.90;;;;;;10073818;29;20510;-84
2022/07/17 00:14:36;;;;;;;34.38;21.70;;;11.00;99.90;;;;;;10072683;29;20095;-84
2022/07/17 00:19:37;;;;;;;31.85;20.58;;;10.90;99.90;;;;;;10090762;29;20041;-85
2022/07/17 00:24:37;;;;;;;32.63;20.33;;;10.90;99.90;;;;;;10088434;29;20053;-85
2022/07/17 00:29:38;;;;;;;27.70;18.40;;;10.90;99.90;;;;;;10090103;29;20755;-85
2022/07/17 00:34:38;;;;;;;30.13;18.90;;;10.90;99.90;;;;;;10089356;29;20053;-85
2022/07/17 00:39:39;;;;;;;29.73;19.02;;;10.80;99.90;;;;;;10089396;29;20037;-85
2022/07/17 00:44:40;;;;;;;31.48;19.85;;;10.80;99.90;;;;;;10089315;29;20057;-85
2022/07/17 00:49:41;;;;;;;27.92;18.10;;;10.80;99.90;;;;;;10087583;29;20064;-85
2022/07/17 00:54:43;;;;;;;27.30;16.67;;;10.90;99.90;;;;;;10089329;29;20156;-85
2022/07/17 00:59:44;;;;;;;34.05;18.90;;;10.90;99.90;;;;;;10071682;29;20489;-86
2022/07/17 01:04:45;;;;;;;23.50;16.27;;;10.90;99.90;;;;;;10070349;29;20048;-87
2022/07/17 01:09:45;;;;;;;28.55;17.55;;;10.90;99.90;;;;;;10087962;29;20493;-86
2022/07/17 01:14:46;;;;;;;31.08;18.17;;;10.90;99.90;;;;;;10071294;29;20718;-85
2022/07/17 01:19:47;;;;;;;29.25;17.15;;;10.90;99.90;;;;;;10071363;29;20739;-87
2022/07/17 01:24:48;;;;;;;31.38;19.05;;;10.90;99.90;;;;;;10088179;29;20120;-86
2022/07/17 01:29:48;;;;;;;33.22;19.35;;;10.90;99.90;;;;;;10087436;29;20055;-86
2022/07/17 01:34:49;;;;;;;29.95;19.83;;;10.80;99.90;;;;;;10069040;29;20105;-84
2022/07/17 01:39:52;;;;;;;33.25;20.65;;;10.80;99.90;;;;;;10087096;29;20052;-84
2022/07/17 01:44:55;;;;;;;30.83;19.40;;;10.70;99.90;;;;;;10071835;29;20053;-85
2022/07/17 01:49:57;;;;;;;32.17;19.88;;;10.70;99.90;;;;;;10070018;29;20051;-85
2022/07/17 01:54:58;;;;;;;28.17;19.02;;;10.70;99.90;;;;;;10087142;29;20055;-85
2022/07/17 01:59:59;;;;;;;34.78;21.98;;;10.70;99.90;;;;;;10087176;29;20041;-84
2022/07/17 02:05:00;;;;;;;31.08;19.63;;;10.60;99.90;;;;;;10086213;29;20036;-84
2022/07/17 02:10:00;;;;;;;31.98;20.67;;;10.60;99.90;;;;;;10084599;29;20033;-84
2022/07/17 02:15:03;;;;;;;32.53;19.43;;;10.60;99.90;;;;;;10066519;29;20033;-84
2022/07/17 02:20:05;;;;;;;31.52;18.95;;;10.50;99.90;;;;;;10085241;29;20088;-86
2022/07/17 02:25:08;;;;;;;40.88;21.13;;;10.50;99.90;;;;;;10069582;29;20056;-84
2022/07/17 02:30:14;;;;;;;32.47;19.17;;;10.50;99.90;;;;;;10068463;29;20045;-85
2022/07/17 02:35:15;;;;;;;34.25;19.30;;;10.40;99.90;;;;;;10084827;29;20025;-85
2022/07/17 02:40:16;;;;;;;32.95;19.27;;;10.40;99.90;;;;;;10085749;29;20037;-85
2022/07/17 02:45:18;;;;;;;33.30;19.23;;;10.40;99.90;;;;;;10084738;29;20077;-87
2022/07/17 02:50:18;;;;;;;34.42;18.50;;;10.40;99.90;;;;;;10081747;29;20068;-87
2022/07/17 02:55:19;;;;;;;32.05;18.15;;;10.40;99.90;;;;;;10085396;29;20136;-86
2022/07/17 03:00:20;;;;;;;36.83;19.13;;;10.40;99.90;;;;;;10073242;29;20025;-85
2022/07/17 03:05:21;;;;;;;30.70;18.52;;;10.40;99.90;;;;;;10089759;29;20037;-88
2022/07/17 03:10:22;;;;;;;28.20;18.40;;;10.40;99.90;;;;;;10092050;29;20037;-86
2022/07/17 03:15:23;;;;;;;29.93;18.13;;;10.40;99.90;;;;;;10091415;29;20112;-87
2022/07/17 03:20:24;;;;;;;31.63;18.08;;;10.40;99.90;;;;;;10076266;29;20028;-87
2022/07/17 03:25:25;;;;;;;29.10;18.05;;;10.40;99.90;;;;;;10075125;29;20045;-87
2022/07/17 03:30:25;;;;;;;29.00;18.13;;;10.40;99.90;;;;;;10074438;29;20049;-87
2022/07/17 03:35:26;;;;;;;32.10;18.60;;;10.40;99.90;;;;;;10075852;29;20473;-87
2022/07/17 03:40:26;;;;;;;31.45;18.13;;;10.50;99.90;;;;;;10071883;29;20674;-87
2022/07/17 03:45:27;;;;;;;30.52;18.63;;;10.40;99.90;;;;;;10071171;29;20038;-86
2022/07/17 03:50:28;;;;;;;31.13;17.47;;;10.50;99.90;;;;;;10088928;29;20508;-85
2022/07/17 04:01:30;;;;;;;27.15;16.80;;;10.50;99.90;;;;;;10084634;29;20060;-85
2022/07/17 04:12:32;;;;;;;29.23;16.58;;;10.70;99.90;;;;;;10085276;29;20509;-85
2022/07/17 04:17:33;;;;;;;28.67;17.45;;;10.70;99.90;;;;;;10087827;29;20037;-86
2022/07/17 04:22:34;;;;;;;29.55;15.85;;;10.80;99.90;;;;;;10071116;29;20377;-86
2022/07/17 04:27:35;;;;;;;25.23;13.73;;;10.90;99.90;;;;;;10070882;29;20068;-86
2022/07/17 04:32:35;;;;;;;24.52;12.95;;;11.00;99.90;;;;;;10090247;29;20041;-85
2022/07/17 04:37:36;;;;;;;18.05;11.48;;;11.10;99.90;;;;;;10085464;29;20482;-84
2022/07/17 04:42:36;;;;;;;26.67;10.20;;;11.30;99.90;;;;;;10084892;29;20382;-84
2022/07/17 04:53:35;;;;;;;13.60;7.10;;;11.50;99.90;;;;;;10087139;29;20045;-85
2022/07/17 04:58:36;;;;;;;12.50;6.93;;;11.60;99.90;;;;;;10071187;29;20029;-84
2022/07/17 05:13:51;;;;;;;9.50;5.53;;;12.00;99.90;;;;;;10331761;23;20136;-81
2022/07/17 05:18:52;;;;;;;9.88;4.82;;;12.10;99.90;;;;;;10108758;29;20127;-82
2022/07/17 05:23:52;;;;;;;8.27;4.15;;;12.30;99.90;;;;;;10102149;29;20611;-82
2022/07/17 05:29:20;;;;;;;7.47;3.70;;;12.40;99.90;;;;;;10101016;29;20499;-82
2022/07/17 05:34:21;;;;;;;9.48;3.47;;;12.60;99.90;;;;;;10108847;29;20096;-82
2022/07/17 05:39:21;;;;;;;6.40;2.75;;;12.80;99.90;;;;;;10115524;29;20036;-82
2022/07/17 05:44:25;;;;;;;3.92;2.15;;;12.90;99.90;;;;;;10119656;29;20560;-82
2022/07/17 05:49:26;;;;;;;5.35;2.25;;;13.00;99.90;;;;;;10082092;29;20170;-84
2022/07/17 05:54:26;;;;;;;5.20;1.95;;;13.10;99.90;;;;;;10089092;29;20102;-82
2022/07/17 05:59:27;;;;;;;6.32;1.92;;;13.20;99.90;;;;;;10079743;29;20688;-83
2022/07/17 06:04:27;;;;;;;8.73;2.35;;;13.40;99.90;;;;;;10101638;29;20397;-85
2022/07/17 06:09:28;;;;;;;7.65;2.30;;;13.60;99.90;;;;;;10116080;29;20132;-84
2022/07/17 06:14:29;;;;;;;5.63;2.17;;;13.70;99.90;;;;;;10104528;29;20075;-82
2022/07/17 06:19:29;;;;;;;4.07;1.90;;;13.90;99.90;;;;;;10082040;29;20040;-82
2022/07/17 06:24:30;;;;;;;12.13;2.58;;;14.00;99.90;;;;;;10075067;29;20062;-87
2022/07/17 06:29:30;;;;;;;4.65;1.60;;;14.30;99.90;;;;;;10087961;29;20068;-84
2022/07/17 06:34:31;;;;;;;10.48;2.85;;;14.40;99.90;;;;;;10085796;29;20054;-84
2022/07/17 06:39:32;;;;;;;8.77;2.00;;;14.60;99.90;;;;;;10091579;29;20051;-85
2022/07/17 06:44:34;;;;;;;4.50;1.73;;;14.70;99.90;;;;;;10091664;29;20037;-84
2022/07/17 06:49:34;;;;;;;5.15;1.60;;;14.80;99.90;;;;;;10082734;29;20089;-86
2022/07/17 06:54:35;;;;;;;4.63;1.95;;;14.90;99.90;;;;;;10089351;29;20132;-86
2022/07/17 06:59:35;;;;;;;11.20;2.97;;;15.10;99.90;;;;;;10082998;29;20048;-84
2022/07/17 07:04:36;;;;;;;6.63;2.13;;;15.70;99.90;;;;;;10087995;29;20728;-84
2022/07/17 07:09:37;;;;;;;5.18;1.60;;;17.30;99.90;;;;;;10080574;29;20401;-84
2022/07/17 07:14:37;;;;;;;6.95;1.63;;;18.80;99.90;;;;;;10094325;29;20073;-83
2022/07/17 07:19:38;;;;;;;4.13;1.45;;;19.70;99.90;;;;;;10103076;29;20036;-84
2022/07/17 07:24:44;;;;;;;2.40;1.40;;;20.30;99.90;;;;;;10092152;29;20127;-85
2022/07/17 07:29:45;;;;;;;5.60;2.22;;;20.70;99.90;;;;;;10097919;29;20045;-84
2022/07/17 07:34:45;;;;;;;4.90;1.50;;;20.80;99.90;;;;;;10083531;29;20056;-84
2022/07/17 07:39:46;;;;;;;9.05;1.50;;;20.90;99.90;;;;;;10114696;29;20113;-83
2022/07/17 07:44:47;;;;;;;3.83;1.35;;;21.10;99.90;;;;;;10099072;29;20048;-84
2022/07/17 07:49:47;;;;;;;5.10;1.42;;;21.00;99.90;;;;;;10112656;29;20104;-84
2022/07/17 07:54:48;;;;;;;4.90;1.33;;;20.60;99.90;;;;;;10100797;29;20117;-83
2022/07/17 07:59:49;;;;;;;6.85;1.27;;;20.20;99.90;;;;;;10102572;29;20043;-82
2022/07/17 08:04:50;;;;;;;6.07;1.52;;;19.80;99.90;;;;;;10116727;29;20176;-82
2022/07/17 08:09:50;;;;;;;3.17;0.93;;;19.50;99.90;;;;;;10099241;29;20143;-83
2022/07/17 08:14:51;;;;;;;3.75;1.42;;;19.50;99.90;;;;;;10113783;29;21035;-85
2022/07/17 08:19:52;;;;;;;4.95;0.90;;;19.30;99.90;;;;;;10112559;29;20144;-83
2022/07/17 08:24:53;;;;;;;4.60;1.30;;;19.40;99.90;;;;;;10110195;29;20080;-82
2022/07/17 08:29:53;;;;;;;4.95;1.00;;;19.60;99.90;;;;;;10117895;29;20482;-85
2022/07/17 08:34:54;;;;;;;5.63;1.23;;;19.70;99.90;;;;;;10108734;29;20049;-81
2022/07/17 08:39:55;;;;;;;3.50;1.02;;;19.80;99.90;;;;;;10112167;29;20525;-85
2022/07/17 08:44:56;;;;;;;4.40;0.80;;;19.80;99.90;;;;;;10083401;29;20032;-82
2022/07/17 08:50:01;;;;;;;3.55;0.60;;;19.80;99.90;;;;;;10088983;29;20036;-82
2022/07/17 08:55:07;;;;;;;;;;;20.20;99.90;;;;;;10108841;29;20458;-81
2022/07/17 09:00:10;;;;;;;2.67;0.95;;;20.60;99.90;;;;;;10114204;29;19967;-82
2022/07/17 09:05:11;;;;;;;0.82;0.60;;;21.00;99.90;;;;;;10094379;29;20044;-82
2022/07/17 09:10:11;;;;;;;6.13;1.10;;;20.80;99.90;;;;;;10112745;29;20491;-86
2022/07/17 09:15:19;;;;;;;2.15;0.95;;;20.60;99.90;;;;;;10107521;29;20032;-82
2022/07/17 09:20:20;;;;;;;3.90;0.90;;;20.70;99.90;;;;;;10104091;29;20116;-82
2022/07/17 09:25:32;;;;;;;2.22;0.73;;;20.30;99.90;;;;;;10110691;29;20047;-82
2022/07/17 09:30:35;;;;;;;4.45;1.05;;;20.10;99.90;;;;;;10124498;29;20036;-83
2022/07/17 09:35:54;;;;;;;2.28;0.75;;;20.20;99.90;;;;;;10112834;29;20401;-80
2022/07/17 09:41:21;;;;;;;4.78;1.17;;;21.00;99.90;;;;;;10104228;29;20040;-82
2022/07/17 09:46:24;;;;;;;2.75;0.70;;;21.00;99.90;;;;;;10100813;29;20044;-82
2022/07/17 09:51:26;;;;;;;1.73;0.88;;;21.60;99.90;;;;;;10089104;29;20032;-82
2022/07/17 09:56:32;;;;;;;1.85;1.10;;;21.00;99.90;;;;;;10117516;29;20123;-84
2022/07/17 10:01:34;;;;;;;2.53;0.68;;;21.10;99.90;;;;;;10123553;29;20083;-83
2022/07/17 10:06:34;;;;;;;2.15;0.93;;;21.50;99.90;;;;;;10116769;29;20097;-85
2022/07/17 10:11:37;;;;;;;2.47;0.98;;;22.10;99.90;;;;;;10116016;29;20109;-83
2022/07/17 10:16:38;;;;;;;1.85;0.77;;;22.90;99.90;;;;;;10116330;29;20032;-81
2022/07/17 10:21:39;;;;;;;3.95;1.50;;;22.60;93.80;;;;;;10099588;29;20370;-82
2022/07/17 10:26:46;;;;;;;3.70;1.10;;;21.80;94.80;;;;;;10083715;29;20037;-81
2022/07/17 10:31:51;;;;;;;2.38;0.70;;;21.70;94.20;;;;;;10094640;29;20049;-81
2022/07/17 10:36:53;;;;;;;2.53;0.80;;;22.10;97.40;;;;;;10079763;29;20049;-81
2022/07/17 10:42:00;;;;;;;2.22;1.20;;;22.70;95.70;;;;;;10097976;29;20037;-82
2022/07/17 10:47:00;;;;;;;1.35;0.60;;;23.10;85.40;;;;;;10117675;29;20773;-82
2022/07/17 10:52:01;;;;;;;3.42;1.05;;;22.70;84.20;;;;;;10093657;29;20140;-83
2022/07/17 10:57:02;;;;;;;1.25;0.75;;;23.20;90.20;;;;;;10113822;29;20703;-83
2022/07/17 11:02:03;;;;;;;4.93;1.25;;;23.20;84.70;;;;;;10083895;29;20033;-83
2022/07/17 11:07:09;;;;;;;2.25;0.90;;;22.50;90.40;;;;;;10113257;29;20041;-82
2022/07/17 11:12:10;;;;;;;4.72;1.27;;;22.90;87.80;;;;;;10100878;29;20052;-81
2022/07/17 11:17:11;;;;;;;1.73;0.80;;;23.10;86.20;;;;;;10104963;29;20410;-84
2022/07/17 11:22:13;;;;;;;2.15;0.85;;;23.40;87.70;;;;;;10084771;29;20048;-83
2022/07/17 11:27:28;;;;;;;3.40;1.00;;;23.40;84.70;;;;;;10091381;29;20044;-89
2022/07/17 11:32:39;;;;;;;4.20;1.25;;;23.30;83.40;;;;;;10119695;29;20153;-86
2022/07/17 11:37:39;;;;;;;2.85;0.90;;;23.60;82.10;;;;;;10109002;29;20025;-85
2022/07/17 11:42:40;;;;;;;1.77;0.80;;;23.90;83.30;;;;;;10115826;29;20041;-85
2022/07/17 11:47:43;;;;;;;4.28;1.10;;;23.90;80.20;;;;;;10111553;29;20137;-83
2022/07/17 11:53:14;;;;;;;2.70;0.90;;;24.20;81.60;;;;;;10101351;29;20564;-85
2022/07/17 11:58:15;;;;;;;3.60;1.10;;;24.20;79.60;;;;;;10096374;29;20042;-84
2022/07/17 12:03:25;;;;;;;4.05;1.10;;;23.90;80.80;;;;;;10063913;29;20029;-83
2022/07/17 12:08:25;;;;;;;3.20;0.82;;;23.90;79.10;;;;;;10102599;29;20021;-83
2022/07/17 12:13:41;;;;;;;1.30;0.60;;;24.10;76.70;;;;;;10097414;29;20057;-84
2022/07/17 12:19:04;;;;;;;;;;;24.20;74.70;;;;;;10115582;29;20104;-86
2022/07/17 12:24:29;;;;;;;2.03;1.00;;;23.50;79.50;;;;;;10101295;29;19944;-84
2022/07/17 12:29:29;;;;;;;1.65;0.80;;;23.60;73.20;;;;;;10119438;29;20037;-86
2022/07/17 12:34:30;;;;;;;2.90;0.98;;;23.60;77.50;;;;;;10105056;29;20052;-85
2022/07/17 12:39:31;;;;;;;3.63;1.30;;;24.10;78.50;;;;;;10090515;29;20034;-84
2022/07/17 12:45:22;;;;;;;1.20;0.55;;;24.70;74.30;;;;;;10116105;29;20036;-81
2022/07/17 12:50:23;;;;;;;2.45;0.93;;;24.80;70.30;;;;;;10061230;29;20036;-81
2022/07/17 12:56:20;;;;;;;3.08;1.13;;;24.60;73.20;;;;;;10103783;29;20048;-83
2022/07/17 13:02:18;;;;;;;2.13;0.70;;;24.70;67.00;;;;;;10100797;29;20560;-82
2022/07/17 13:07:32;;;;;;;4.63;1.00;;;24.20;70.10;;;;;;10106169;29;20107;-85
2022/07/17 13:18:30;;;;;;;4.75;1.15;;;23.40;67.30;;;;;;10113041;29;20029;-82
2022/07/17 13:23:31;;;;;;;2.47;0.70;;;23.30;68.90;;;;;;10088808;29;20033;-84
2022/07/17 13:29:00;;;;;;;2.65;0.70;;;23.50;71.50;;;;;;10106222;29;20046;-83
2022/07/17 13:34:02;;;;;;;2.17;0.90;;;23.50;70.90;;;;;;10082185;29;20083;-84
2022/07/17 13:39:03;;;;;;;1.67;0.60;;;23.70;71.00;;;;;;10104432;29;20045;-83
2022/07/17 13:44:05;;;;;;;2.35;0.77;;;23.60;67.90;;;;;;10091443;29;20513;-83
2022/07/17 13:49:05;;;;;;;2.30;0.85;;;23.70;69.10;;;;;;10099404;29;20414;-84
2022/07/17 13:54:06;;;;;;;2.17;0.73;;;23.80;67.40;;;;;;10094457;29;20059;-82
2022/07/17 13:59:07;;;;;;;3.63;1.50;;;23.20;67.60;;;;;;10088392;29;20488;-83
2022/07/17 14:04:08;;;;;;;3.60;1.33;;;22.80;68.30;;;;;;10081495;29;20044;-82
2022/07/17 14:09:08;;;;;;;2.78;1.10;;;22.70;70.60;;;;;;10081368;29;20037;-84
2022/07/17 14:14:09;;;;;;;2.08;1.10;;;22.40;69.40;;;;;;10078226;29;20405;-84
2022/07/17 14:19:10;;;;;;;3.50;1.30;;;22.00;69.50;;;;;;10126728;23;20468;-83
2022/07/17 14:24:11;;;;;;;1.92;0.70;;;22.00;71.40;;;;;;10156718;29;20028;-84
2022/07/17 14:29:11;;;;;;;1.33;0.60;;;22.20;71.40;;;;;;10161342;29;20075;-83
2022/07/17 14:34:13;;;;;;;3.47;0.82;;;22.50;70.10;;;;;;10128852;29;20071;-82
2022/07/17 14:39:13;;;;;;;2.55;1.05;;;22.50;69.10;;;;;;10148117;29;20056;-83
2022/07/17 14:44:14;;;;;;;2.33;1.00;;;22.50;68.80;;;;;;10148372;29;20024;-84
2022/07/17 14:49:14;;;;;;;2.80;0.82;;;22.30;72.50;;;;;;10156749;29;20027;-81
2022/07/17 14:54:15;;;;;;;4.65;1.20;;;22.30;71.50;;;;;;10161746;29;20047;-82
2022/07/17 14:59:16;;;;;;;1.65;0.80;;;22.40;72.00;;;;;;10163291;29;20048;-84
2022/07/17 15:04:16;;;;;;;4.43;0.85;;;22.20;69.80;;;;;;10168844;29;20036;-83
2022/07/17 15:09:17;;;;;;;4.07;1.20;;;22.10;70.10;;;;;;10167501;29;20048;-83
2022/07/17 15:14:18;;;;;;;4.10;1.35;;;21.90;70.00;;;;;;10131834;29;20044;-83
2022/07/17 15:19:19;;;;;;;0.70;0.63;;;21.70;69.60;;;;;;10125153;29;20064;-82
2022/07/17 15:24:20;;;;;;;4.05;0.98;;;21.50;70.30;;;;;;10126251;29;20533;-81
2022/07/17 15:29:21;;;;;;;3.28;0.80;;;21.40;71.60;;;;;;10129767;29;20040;-82
2022/07/17 15:34:22;;;;;;;2.88;0.85;;;21.40;72.50;;;;;;10114055;29;20510;-82
2022/07/17 15:39:22;;;;;;;5.60;1.65;;;21.40;74.10;;;;;;10112929;29;20128;-82
2022/07/17 15:44:24;;;;;;;2.17;0.68;;;21.60;73.30;;;;;;10128853;29;20041;-82
2022/07/17 15:49:27;;;;;;;2.72;1.00;;;21.70;68.40;;;;;;10125660;29;20048;-82
2022/07/17 15:54:27;;;;;;;5.63;2.72;;;21.70;68.70;;;;;;10127283;29;20079;-82
2022/07/17 15:59:28;;;;;;;4.82;2.67;;;21.80;69.60;;;;;;10129296;29;20115;-82
2022/07/17 16:04:28;;;;;;;3.60;1.50;;;21.80;69.00;;;;;;10128548;29;20111;-82
2022/07/17 16:09:29;;;;;;;2.60;1.08;;;21.60;68.20;;;;;;10127707;29;20489;-82
2022/07/17 16:14:30;;;;;;;2.35;0.88;;;21.60;68.20;;;;;;10122517;29;20056;-81
2022/07/17 16:19:30;;;;;;;2.28;0.85;;;21.60;68.50;;;;;;10111208;29;20051;-82
2022/07/17 16:24:31;;;;;;;2.17;0.90;;;21.50;67.40;;;;;;10108333;29;20469;-82
2022/07/17 16:29:32;;;;;;;6.82;1.30;;;21.40;67.30;;;;;;10125799;29;20032;-81
2022/07/17 16:34:32;;;;;;;3.47;1.75;;;21.40;68.20;;;;;;10130450;23;20056;-80
2022/07/17 16:39:33;;;;;;;2.67;1.25;;;21.30;68.10;;;;;;10096906;29;20373;-81
2022/07/17 16:44:34;;;;;;;3.83;1.30;;;21.30;68.10;;;;;;10099048;29;20029;-82
2022/07/17 16:49:34;;;;;;;2.20;1.00;;;21.30;68.00;;;;;;10082246;29;20077;-83
2022/07/17 16:54:35;;;;;;;5.72;0.95;;;21.20;67.30;;;;;;10085219;29;20057;-84
2022/07/17 16:59:36;;;;;;;1.58;0.82;;;21.10;66.50;;;;;;10071699;29;20025;-81
2022/07/17 17:04:37;;;;;;;2.40;1.25;;;21.10;68.30;;;;;;10096134;29;20151;-82
2022/07/17 17:09:37;;;;;;;2.55;1.00;;;21.00;67.60;;;;;;10090155;29;20039;-82
2022/07/17 17:14:38;;;;;;;2.60;1.23;;;20.80;65.50;;;;;;10088725;29;20041;-82
2022/07/17 17:19:39;;;;;;;5.22;0.80;;;20.80;66.40;;;;;;10093190;29;20196;-83
2022/07/17 17:24:40;;;;;;;1.27;0.75;;;20.70;66.80;;;;;;10095401;29;20037;-82
2022/07/17 17:29:41;;;;;;;2.20;0.85;;;20.50;68.40;;;;;;10074089;29;20060;-82
2022/07/17 17:34:41;;;;;;;2.00;1.15;;;20.40;68.80;;;;;;10086797;29;20140;-82
2022/07/17 17:39:42;;;;;;;2.30;0.90;;;20.30;68.80;;;;;;10088735;29;20648;-82
2022/07/17 17:44:42;;;;;;;2.40;0.90;;;20.00;73.50;;;;;;10103655;29;20033;-84
2022/07/17 17:49:43;;;;;;;1.58;0.95;;;19.50;74.60;;;;;;10081265;29;20037;-82
2022/07/17 17:54:43;;;;;;;3.25;1.15;;;19.10;75.50;;;;;;10104811;29;20097;-80
2022/07/17 17:59:44;;;;;;;1.85;1.00;;;18.80;75.60;;;;;;10094087;29;20037;-81
2022/07/17 18:04:44;;;;;;;2.65;1.40;;;18.60;76.40;;;;;;10096550;29;20398;-82
2022/07/17 18:09:45;;;;;;;2.72;1.20;;;18.20;78.50;;;;;;10084210;29;20363;-80
2022/07/17 18:14:46;;;;;;;2.38;1.25;;;17.80;80.00;;;;;;10086338;29;20166;-82
2022/07/17 18:19:47;;;;;;;4.65;1.27;;;17.40;81.90;;;;;;10091927;29;20140;-83
2022/07/17 18:24:47;;;;;;;5.60;1.30;;;17.10;84.20;;;;;;10091802;29;20040;-82
2022/07/17 18:29:48;;;;;;;2.85;1.38;;;16.90;84.90;;;;;;10080235;29;20032;-82
2022/07/17 18:34:48;;;;;;;1.88;1.20;;;16.60;85.90;;;;;;10086812;29;20086;-82
2022/07/17 18:39:49;;;;;;;4.47;1.48;;;16.30;87.00;;;;;;10096554;29;20045;-84
2022/07/17 18:44:50;;;;;;;1.65;1.40;;;16.00;88.50;;;;;;10104543;29;20045;-84
2022/07/17 18:49:54;;;;;;;2.42;1.40;;;15.80;88.50;;;;;;10093709;29;20049;-81
2022/07/17 18:54:56;;;;;;;5.28;1.50;;;15.50;90.20;;;;;;10104995;29;20053;-82
2022/07/17 18:59:57;;;;;;;3.15;1.30;;;15.40;90.80;;;;;;10094441;29;20087;-82
2022/07/17 19:04:58;;;;;;;2.22;1.15;;;15.20;91.40;;;;;;10099268;29;20049;-82
2022/07/17 19:09:59;;;;;;;10.50;2.63;;;15.00;92.20;;;;;;10095455;29;20033;-82
2022/07/17 19:15:00;;;;;;;3.08;2.10;;;14.90;93.10;;;;;;10099756;29;20059;-83
2022/07/17 19:20:03;;;;;;;4.72;2.22;;;14.70;94.80;;;;;;10095856;29;20041;-82
2022/07/17 19:25:21;;;;;;;5.38;2.50;;;14.60;96.20;;;;;;10111842;29;20097;-83
2022/07/17 19:30:29;;;;;;;4.10;2.05;;;14.40;98.40;;;;;;10102438;29;20056;-83
2022/07/17 19:35:30;;;;;;;3.97;1.88;;;14.20;99.80;;;;;;10093374;29;20053;-82
2022/07/17 19:40:32;;;;;;;4.32;2.10;;;14.10;99.90;;;;;;10084475;29;20029;-81
2022/07/17 19:45:34;;;;;;;5.70;2.00;;;14.10;99.90;;;;;;10080431;29;20057;-81
2022/07/17 19:50:35;;;;;;;30.58;2.72;;;14.10;99.90;;;;;;10104597;29;20511;-82
2022/07/17 19:56:11;;;;;;;4.00;1.80;;;14.10;99.90;;;;;;10108296;29;20051;-82
2022/07/17 20:00:57;;;;;;;9.93;1.90;;;14.10;99.90;;;;;;10107794;29;20037;-81
2022/07/17 20:05:58;;;;;;;4.55;1.85;;;14.00;99.90;;;;;;10097239;29;20036;-81
2022/07/17 20:10:59;;;;;;;2.10;1.58;;;13.90;99.90;;;;;;10085351;29;20041;-81
2022/07/17 20:16:02;;;;;;;3.53;1.80;;;13.80;99.90;;;;;;10111885;29;20045;-80
2022/07/17 20:21:04;;;;;;;6.15;2.28;;;13.80;99.90;;;;;;10109992;29;20401;-82
2022/07/17 20:26:05;;;;;;;3.00;2.20;;;13.60;99.90;;;;;;10108067;29;20136;-81
2022/07/17 20:31:06;;;;;;;3.08;2.28;;;13.50;99.90;;;;;;10082810;29;20827;-83
2022/07/17 20:36:07;;;;;;;2.85;1.65;;;13.50;99.90;;;;;;10109376;29;20060;-82
2022/07/17 20:41:08;;;;;;;4.93;1.90;;;13.40;99.90;;;;;;10098182;29;20025;-81
2022/07/17 20:46:09;;;;;;;4.03;2.13;;;13.30;99.90;;;;;;10109500;29;20049;-81
2022/07/17 20:51:10;;;;;;;2.35;1.83;;;13.20;99.90;;;;;;10099124;29;20064;-83
2022/07/17 20:56:11;;;;;;;4.72;1.88;;;13.20;99.90;;;;;;10095831;29;20136;-81
2022/07/17 21:01:11;;;;;;;3.15;1.58;;;13.10;99.90;;;;;;10088442;29;20048;-81
2022/07/17 21:06:13;;;;;;;4.28;2.15;;;13.10;99.90;;;;;;10084311;29;20524;-81
2022/07/17 21:11:16;;;;;;;4.93;1.90;;;13.00;99.90;;;;;;10090178;29;20033;-82
2022/07/17 21:16:17;;;;;;;4.65;2.13;;;13.00;99.90;;;;;;10090298;29;20041;-82
2022/07/17 21:21:17;;;;;;;5.10;1.98;;;12.90;99.90;;;;;;10091962;29;20477;-82
2022/07/17 21:26:18;;;;;;;4.38;1.67;;;12.80;99.90;;;;;;10089524;29;20029;-82
2022/07/17 21:31:18;;;;;;;6.00;2.17;;;12.70;99.90;;;;;;10096155;29;20092;-82
2022/07/17 21:36:19;;;;;;;3.85;2.00;;;12.70;99.90;;;;;;10092873;29;20120;-82
2022/07/17 21:41:20;;;;;;;6.10;2.10;;;12.70;99.90;;;;;;10110182;29;20041;-81
2022/07/17 21:46:20;;;;;;;3.67;2.13;;;12.70;99.90;;;;;;10089335;29;20041;-82
2022/07/17 21:51:21;;;;;;;6.05;2.28;;;12.80;99.90;;;;;;10097547;29;20048;-82
2022/07/17 22:01:26;;;;;;;4.70;2.15;;;12.80;99.90;;;;;;10108632;29;20014;-82
2022/07/17 22:06:27;;;;;;;4.80;2.22;;;12.70;99.90;;;;;;10102092;29;20044;-82
2022/07/17 22:11:27;;;;;;;3.65;2.30;;;12.70;99.90;;;;;;10112590;29;20059;-82
2022/07/17 22:16:28;;;;;;;13.70;2.17;;;12.70;99.90;;;;;;10106491;29;20409;-82
2022/07/17 22:21:29;;;;;;;7.22;2.22;;;12.60;99.90;;;;;;10097136;29;20088;-82
2022/07/17 22:26:31;;;;;;;8.60;2.72;;;12.60;99.90;;;;;;10102899;29;20105;-83
2022/07/17 22:31:32;;;;;;;7.75;2.80;;;12.60;99.90;;;;;;10109594;29;20104;-83
2022/07/17 22:36:32;;;;;;;10.57;3.33;;;12.50;99.90;;;;;;10095712;29;20049;-83
2022/07/17 22:41:33;;;;;;;9.23;3.88;;;12.40;99.90;;;;;;10097199;29;20105;-82
2022/07/17 22:46:33;;;;;;;9.13;4.53;;;12.30;99.90;;;;;;10110808;29;20536;-82
2022/07/17 22:51:34;;;;;;;13.27;4.43;;;12.10;99.90;;;;;;10096884;29;20486;-83
2022/07/17 22:56:35;;;;;;;6.47;3.78;;;12.00;99.90;;;;;;10099957;29;20037;-82
2022/07/17 23:01:35;;;;;;;5.43;3.55;;;11.90;99.90;;;;;;10101826;29;20533;-82
2022/07/17 23:06:37;;;;;;;6.45;3.10;;;11.70;99.90;;;;;;10098189;29;20504;-82
2022/07/17 23:11:37;;;;;;;8.13;3.10;;;11.60;99.90;;;;;;10097019;29;20099;-82
2022/07/17 23:16:38;;;;;;;10.13;3.42;;;11.60;99.90;;;;;;10106934;29;20051;-82
2022/07/17 23:21:39;;;;;;;8.57;3.63;;;11.70;99.90;;;;;;10147110;23;20052;-82
2022/07/17 23:26:39;;;;;;;5.32;3.53;;;11.80;99.90;;;;;;10171588;29;20040;-82
2022/07/17 23:31:40;;;;;;;3.90;3.13;;;11.80;99.90;;;;;;10170798;29;20040;-81
2022/07/17 23:36:41;;;;;;;6.95;3.38;;;11.70;99.90;;;;;;10169487;29;20713;-82
2022/07/17 23:41:42;;;;;;;11.52;3.38;;;11.70;99.90;;;;;;10169637;29;20039;-82
2022/07/17 23:46:43;;;;;;;5.60;2.83;;;11.80;99.90;;;;;;10169895;29;20047;-83
2022/07/17 23:51:43;;;;;;;4.32;2.67;;;11.80;99.90;;;;;;10169362;29;20059;-83
2022/07/17 23:56:44;;;;;;;9.13;3.00;;;11.70;99.90;;;;;;10169880;29;20040;-83
